Time,TemperatureF,DewpointF,PressureIn,WindDirection,WindDirectionDegrees,WindSpeedMPH,WindSpeedGustMPH,Humidity,HourlyPrecipIn,Conditions,Clouds,dailyrainin,SoftwareType,DateUTC
2013-03-07 00:00:00,37.6,26.1,30.07,NW,319,1.0,12.0,63,0.00,RA,,0.00,WeatherDisplay:10.37,2013-03-07 05:00:00,
2013-03-07 00:15:00,37.6,26.1,30.06,NW,324,1.0,9.0,63,0.00,SCT,,0.00,WeatherDisplay:10.37,2013-03-07 05:15:00,
2013-03-07 00:30:00,37.8,26.3,30.06,NNW,331,1.0,6.0,63,0.00,SCT,,0.00,WeatherDisplay:10.37,2013-03-07 05:30:00,
2013-03-07 00:45:00,37.9,26.4,30.06,NW,319,2.0,7.0,63,0.00,SCT,,0.00,WeatherDisplay:10.37,2013-03-07 05:45:00,
2013-03-07 01:00:00,38.0,26.1,30.06,NW,325,1.0,7.0,62,0.00,SCT,,0.00,WeatherDisplay:10.37,2013-03-07 06:00:00,
2013-03-07 01:15:00,38.2,26.3,30.07,NNW,334,1.0,15.0,62,0.00,SCT,,0.00,WeatherDisplay:10.37,2013-03-07 06:15:00,
2013-03-07 01:30:00,38.3,26.0,30.08,NNW,330,3.0,15.0,61,0.00,SCT,,0.00,WeatherDisplay:10.37,2013-03-07 06:30:00,
2013-03-07 02:00:00,38.3,26.4,30.08,NW,317,0.0,12.0,62,0.00,SCT,,0.00,WeatherDisplay:10.37,2013-03-07 07:00:00,
2013-03-07 02:15:00,38.0,26.1,30.06,NW,312,1.0,9.0,62,0.00,SCT,,0.00,WeatherDisplay:10.37,2013-03-07 07:15:00,
2013-03-07 02:30:00,37.4,26.0,30.07,NW,312,1.0,6.0,63,0.00,SCT,,0.00,WeatherDisplay:10.37,2013-03-07 07:30:00,
2013-03-07 02:45:00,36.7,26.1,30.07,NW,309,0.0,3.0,65,0.00,SCT,,0.00,WeatherDisplay:10.37,2013-03-07 07:45:00,
2013-03-07 03:00:00,35.9,26.0,30.06,NNW,329,0.0,4.0,67,0.00,SCT,,0.00,WeatherDisplay:10.37,2013-03-07 08:00:00,
2013-03-07 03:15:00,35.2,26.0,30.06,NNW,333,0.0,1.0,69,0.00,SCT,,0.00,WeatherDisplay:10.37,2013-03-07 08:15:00,
2013-03-07 03:30:00,34.1,26.0,30.05,NNW,333,0.0,1.0,72,0.00,SCT,,0.00,WeatherDisplay:10.37,2013-03-07 08:30:00,
2013-03-07 03:45:00,33.7,26.6,30.06,NW,317,0.0,3.0,75,0.00,SCT,,0.00,WeatherDisplay:10.37,2013-03-07 08:45:00,
2013-03-07 04:00:00,34.6,26.8,30.06,West,277,0.0,2.0,73,0.00,SCT,,0.00,WeatherDisplay:10.37,2013-03-07 09:00:00,
2013-03-07 04:15:00,35.0,26.2,30.06,NW,306,0.0,5.0,70,0.00,SCT,,0.00,WeatherDisplay:10.37,2013-03-07 09:15:00,
2013-03-07 04:30:00,34.9,26.4,30.07,NW,306,0.0,2.0,71,0.00,SCT,,0.00,WeatherDisplay:10.37,2013-03-07 09:30:00,
2013-03-07 04:45:00,34.7,26.6,30.07,NW,306,0.0,2.0,72,0.00,SCT,,0.00,WeatherDisplay:10.37,2013-03-07 09:45:00,
2013-03-07 05:00:00,34.0,26.6,30.08,NW,306,0.0,2.0,74,0.00,SCT,,0.00,WeatherDisplay:10.37,2013-03-07 10:00:00,
2013-03-07 05:15:00,34.1,27.0,30.08,NW,306,0.0,0.0,75,0.00,SCT,,0.00,WeatherDisplay:10.37,2013-03-07 10:15:00,
2013-03-07 05:30:00,34.4,27.0,30.09,NW,306,0.0,0.0,74,0.00,SCT,,0.00,WeatherDisplay:10.37,2013-03-07 10:30:00,
2013-03-07 05:45:00,34.6,27.2,30.10,NW,306,0.0,2.0,74,0.00,SCT,,0.00,WeatherDisplay:10.37,2013-03-07 10:45:00,
2013-03-07 06:00:00,34.4,26.3,30.10,NW,306,0.0,1.0,72,0.00,SCT,,0.00,WeatherDisplay:10.37,2013-03-07 11:00:00,
2013-03-07 06:15:00,33.8,26.4,30.12,NW,306,0.0,1.0,74,0.00,SCT,,0.00,WeatherDisplay:10.37,2013-03-07 11:15:00,
2013-03-07 06:30:00,33.1,26.1,30.12,NW,306,0.0,0.0,75,0.00,SCT,,0.00,WeatherDisplay:10.37,2013-03-07 11:30:00,
2013-03-07 06:45:00,32.7,26.0,30.14,NW,306,0.0,0.0,76,0.00,SCT,,0.00,WeatherDisplay:10.37,2013-03-07 11:45:00,
2013-03-07 07:00:00,32.3,26.5,30.15,NW,306,0.0,0.0,79,0.00,SCT,,0.00,WeatherDisplay:10.37,2013-03-07 12:00:00,
2013-03-07 07:15:00,32.6,26.8,30.16,NW,306,0.0,0.0,79,0.00,SCT,,0.00,WeatherDisplay:10.37,2013-03-07 12:15:00,
2013-03-07 07:30:00,34.4,27.6,30.16,NW,306,0.0,1.0,76,0.00,SCT,,0.00,WeatherDisplay:10.37,2013-03-07 12:30:00,
2013-03-07 07:45:00,35.8,27.0,30.17,NW,306,0.0,2.0,70,0.00,SCT,,0.00,WeatherDisplay:10.37,2013-03-07 12:45:00,
2013-03-07 08:00:00,36.5,26.6,30.17,NW,306,0.0,2.0,67,0.00,SCT,,0.00,WeatherDisplay:10.37,2013-03-07 13:00:00,
2013-03-07 08:15:00,36.5,26.2,30.17,WNW,283,0.0,3.0,66,0.00,SCT,,0.00,WeatherDisplay:10.37,2013-03-07 13:15:00,
2013-03-07 08:30:00,36.9,26.6,30.18,SSW,211,0.0,4.0,66,0.00,SCT,,0.00,WeatherDisplay:10.37,2013-03-07 13:30:00,
2013-03-07 08:45:00,38.0,26.5,30.18,WSW,248,1.0,7.0,63,0.00,SCT,,0.00,WeatherDisplay:10.37,2013-03-07 13:45:00,
2013-03-07 09:00:00,39.5,25.9,30.18,NW,318,3.0,12.0,58,0.00,SCT,,0.00,WeatherDisplay:10.37,2013-03-07 14:00:00,
2013-03-07 09:15:00,39.8,25.8,30.17,NW,317,2.0,12.0,57,0.00,SCT,,0.00,WeatherDisplay:10.37,2013-03-07 14:15:00,
2013-03-07 09:30:00,40.6,26.5,30.18,NW,305,2.0,10.0,57,0.00,SCT,,0.00,WeatherDisplay:10.37,2013-03-07 14:30:00,
2013-03-07 09:45:00,41.7,26.3,30.18,WNW,303,0.0,6.0,54,0.00,SCT,,0.00,WeatherDisplay:10.37,2013-03-07 14:45:00,
2013-03-07 10:00:00,42.5,26.6,30.17,NNW,331,1.0,12.0,53,0.00,SCT,,0.00,WeatherDisplay:10.37,2013-03-07 15:00:00,
2013-03-07 10:15:00,43.9,26.4,30.17,NW,310,3.0,10.0,50,0.00,SCT,,0.00,WeatherDisplay:10.37,2013-03-07 15:15:00,
2013-03-07 10:30:00,43.8,26.8,30.17,NW,324,0.0,9.0,51,0.00,SCT,,0.00,WeatherDisplay:10.37,2013-03-07 15:30:00,
2013-03-07 11:00:00,43.6,26.6,30.18,North,9,1.0,9.0,51,0.00,SCT,,0.00,WeatherDisplay:10.37,2013-03-07 16:00:00,
2013-03-07 11:15:00,44.9,26.4,30.17,NNW,332,1.0,7.0,48,0.00,SCT,,0.00,WeatherDisplay:10.37,2013-03-07 16:15:00,
2013-03-07 11:30:00,45.3,26.7,30.16,NNW,327,1.0,9.0,48,0.00,SCT,,0.00,WeatherDisplay:10.37,2013-03-07 16:30:00,
2013-03-07 11:45:00,45.6,27.0,30.16,NNW,333,1.0,10.0,48,0.00,SCT,,0.00,WeatherDisplay:10.37,2013-03-07 16:45:00,
2013-03-07 12:00:00,47.0,26.7,30.16,WNW,300,6.0,10.0,45,0.00,SCT,,0.00,WeatherDisplay:10.37,2013-03-07 17:00:00,
2013-03-07 12:15:00,46.2,26.0,30.15,NNW,343,2.0,9.0,45,0.00,SCT,,0.00,WeatherDisplay:10.37,2013-03-07 17:15:00,
2013-03-07 12:30:00,48.3,27.9,30.14,NW,314,1.0,8.0,45,0.00,SCT,,0.00,WeatherDisplay:10.37,2013-03-07 17:30:00,
2013-03-07 12:45:00,48.2,26.7,30.14,WNW,299,2.0,10.0,43,0.00,SCT,,0.00,WeatherDisplay:10.37,2013-03-07 17:45:00,
2013-03-07 13:00:00,48.9,27.9,30.13,NW,308,3.0,10.0,44,0.00,SCT,,0.00,WeatherDisplay:10.37,2013-03-07 18:00:00,
2013-03-07 13:15:00,48.9,26.8,30.12,West,270,0.0,12.0,42,0.00,SCT,,0.00,WeatherDisplay:10.37,2013-03-07 18:15:00,
2013-03-07 13:30:00,50.5,30.0,30.11,NW,317,1.0,7.0,45,0.00,SCT,,0.00,WeatherDisplay:10.37,2013-03-07 18:30:00,
2013-03-07 13:45:00,51.0,28.1,30.11,NNW,332,2.0,13.0,41,0.00,SCT,,0.00,WeatherDisplay:10.37,2013-03-07 18:45:00,
2013-03-07 14:00:00,50.6,27.1,30.10,NW,324,3.0,12.0,40,0.00,SCT,,0.00,WeatherDisplay:10.37,2013-03-07 19:00:00,
2013-03-07 14:15:00,52.3,29.2,30.10,NW,311,0.0,12.0,41,0.00,SCT,,0.00,WeatherDisplay:10.37,2013-03-07 19:15:00,
2013-03-07 14:30:00,51.1,27.6,30.10,NW,310,3.0,10.0,40,0.00,SCT,,0.00,WeatherDisplay:10.37,2013-03-07 19:30:00,
2013-03-07 14:45:00,51.3,27.8,30.11,NNW,343,1.0,8.0,40,0.00,SCT,,0.00,WeatherDisplay:10.37,2013-03-07 19:45:00,
2013-03-07 15:00:00,51.0,27.5,30.11,NW,306,1.0,13.0,40,0.00,SCT,,0.00,WeatherDisplay:10.37,2013-03-07 20:00:00,
2013-03-07 15:30:00,51.1,26.3,30.11,NNW,340,1.0,12.0,38,0.00,SCT,,0.00,WeatherDisplay:10.37,2013-03-07 20:30:00,
2013-03-07 15:45:00,51.1,27.0,30.11,NNW,334,2.0,13.0,39,0.00,SCT,,0.00,WeatherDisplay:10.37,2013-03-07 20:45:00,
2013-03-07 16:00:00,51.0,27.5,30.12,WNW,296,3.0,13.0,40,0.00,SCT,,0.00,WeatherDisplay:10.37,2013-03-07 21:00:00,
2013-03-07 16:15:00,50.7,27.2,30.13,NW,324,2.0,10.0,40,0.00,SCT,,0.00,WeatherDisplay:10.37,2013-03-07 21:15:00,
2013-03-07 16:30:00,49.0,26.9,30.13,North,6,1.0,9.0,42,0.00,SCT,,0.00,WeatherDisplay:10.37,2013-03-07 21:30:00,
2013-03-07 16:45:00,48.0,26.5,30.13,North,2,1.0,7.0,43,0.00,SCT,,0.00,WeatherDisplay:10.37,2013-03-07 21:45:00,
2013-03-07 17:00:00,47.3,27.0,30.15,North,355,2.0,10.0,45,0.00,SCT,,0.00,WeatherDisplay:10.37,2013-03-07 22:00:00,
2013-03-07 17:15:00,46.2,26.0,30.16,North,1,2.0,9.0,45,0.00,SCT,,0.00,WeatherDisplay:10.37,2013-03-07 22:15:00,
2013-03-07 17:30:00,45.4,26.3,30.16,NNW,339,0.0,9.0,47,0.00,SCT,,0.00,WeatherDisplay:10.37,2013-03-07 22:30:00,
2013-03-07 17:45:00,44.7,25.7,30.17,NNW,348,1.0,7.0,47,0.00,SCT,,0.00,WeatherDisplay:10.37,2013-03-07 22:45:00,
2013-03-07 18:00:00,43.9,25.5,30.18,NNW,347,1.0,8.0,48,0.00,SCT,,0.00,WeatherDisplay:10.37,2013-03-07 23:00:00,
2013-03-07 18:15:00,43.1,24.7,30.19,NNW,341,1.0,9.0,48,0.00,SCT,,0.00,WeatherDisplay:10.37,2013-03-07 23:15:00,
2013-03-07 18:30:00,42.5,24.7,30.20,North,354,2.0,10.0,49,0.00,SCT,,0.00,WeatherDisplay:10.37,2013-03-07 23:30:00,
2013-03-07 18:45:00,41.6,24.3,30.20,NNW,342,1.0,7.0,50,0.00,SCT,,0.00,WeatherDisplay:10.37,2013-03-07 23:45:00,
2013-03-07 19:00:00,41.1,24.3,30.22,NNW,332,0.0,6.0,51,0.00,SCT,,0.00,WeatherDisplay:10.37,2013-03-08 00:00:00,
2013-03-07 19:15:00,40.6,24.3,30.22,NNW,330,1.0,9.0,52,0.00,SCT,,0.00,WeatherDisplay:10.37,2013-03-08 00:15:00,
2013-03-07 19:30:00,40.2,24.0,30.22,NNW,334,3.0,9.0,52,0.00,SCT,,0.00,WeatherDisplay:10.37,2013-03-08 00:30:00,
2013-03-07 19:45:00,39.8,24.0,30.23,NNW,342,0.0,5.0,53,0.00,SCT,,0.00,WeatherDisplay:10.37,2013-03-08 00:45:00,
2013-03-07 20:00:00,39.3,23.6,30.23,NNW,343,0.0,12.0,53,0.00,SCT,,0.00,WeatherDisplay:10.37,2013-03-08 01:00:00,
2013-03-07 20:15:00,39.1,23.8,30.23,NNW,334,2.0,7.0,54,0.00,SCT,,0.00,WeatherDisplay:10.37,2013-03-08 01:15:00,
2013-03-07 20:30:00,38.7,23.5,30.24,NW,325,0.0,8.0,54,0.00,SCT,,0.00,WeatherDisplay:10.37,2013-03-08 01:30:00,
2013-03-07 20:45:00,38.6,23.4,30.25,NW,314,1.0,9.0,54,0.00,SCT,,0.00,WeatherDisplay:10.37,2013-03-08 01:45:00,
2013-03-07 21:00:00,38.2,23.4,30.25,NNW,328,1.0,5.0,55,0.00,SCT,,0.00,WeatherDisplay:10.37,2013-03-08 02:00:00,
2013-03-07 21:15:00,37.8,23.5,30.25,NNW,327,0.0,4.0,56,0.00,SCT,,0.00,WeatherDisplay:10.37,2013-03-08 02:15:00,
2013-03-07 21:30:00,37.3,23.4,30.25,WNW,297,0.0,4.0,57,0.00,SCT,,0.00,WeatherDisplay:10.37,2013-03-08 02:30:00,
2013-03-07 22:00:00,36.5,23.5,30.24,WNW,300,0.0,2.0,59,0.00,SCT,,0.00,WeatherDisplay:10.37,2013-03-08 03:00:00,
2013-03-07 22:15:00,36.0,23.4,30.24,WNW,300,0.0,2.0,60,0.00,SCT,,0.00,WeatherDisplay:10.37,2013-03-08 03:15:00,
2013-03-07 22:30:00,35.8,23.7,30.25,NNW,329,0.0,3.0,61,0.00,SCT,,0.00,WeatherDisplay:10.37,2013-03-08 03:30:00,
2013-03-07 22:45:00,35.6,23.5,30.25,NW,306,0.0,6.0,61,0.00,SCT,,0.00,WeatherDisplay:10.37,2013-03-08 03:45:00,
2013-03-07 23:00:00,35.2,23.5,30.25,NW,307,0.0,2.0,62,0.00,SCT,,0.00,WeatherDisplay:10.37,2013-03-08 04:00:00,
2013-03-07 23:15:00,34.6,23.3,30.24,NW,306,0.0,1.0,63,0.00,SCT,,0.00,WeatherDisplay:10.37,2013-03-08 04:15:00,
2013-03-07 23:30:00,33.8,23.3,30.24,NW,306,0.0,0.0,65,0.00,SCT,,0.00,WeatherDisplay:10.37,2013-03-08 04:30:00,
2013-03-07 23:45:00,32.9,23.5,30.24,NW,306,0.0,1.0,68,0.00,SCT,,0.00,WeatherDisplay:10.37,2013-03-08 04:45:00,